createdAt,value
2019-05-13T00:01:07.063Z,99.90
2019-05-13T00:03:34.256Z,99.90
2019-05-13T00:06:04.198Z,99.90
2019-05-13T00:08:33.956Z,99.90
2019-05-13T00:11:04.651Z,99.90
2019-05-13T00:13:33.995Z,99.90
2019-05-13T00:16:03.673Z,99.90
2019-05-13T00:18:34.053Z,99.90
2019-05-13T00:21:03.796Z,99.90
2019-05-13T00:23:33.980Z,99.90
2019-05-13T00:26:04.568Z,99.90
2019-05-13T00:28:34.345Z,99.90
2019-05-13T00:31:05.025Z,99.90
2019-05-13T00:33:34.332Z,99.90
2019-05-13T00:36:04.167Z,99.90
2019-05-13T00:38:33.790Z,99.90
2019-05-13T00:41:03.640Z,99.90
2019-05-13T00:43:33.978Z,99.90
2019-05-13T00:46:03.856Z,99.90
2019-05-13T00:48:33.678Z,99.90
2019-05-13T00:51:03.702Z,99.90
2019-05-13T00:53:35.343Z,99.90
2019-05-13T00:56:04.809Z,99.90
2019-05-13T00:58:34.139Z,99.90
2019-05-13T01:01:03.720Z,99.90
2019-05-13T01:03:33.934Z,99.90
2019-05-13T01:06:04.258Z,99.90
2019-05-13T01:08:34.811Z,99.90
2019-05-13T01:11:04.453Z,99.90
2019-05-13T01:13:34.181Z,99.90
2019-05-13T01:16:04.038Z,99.90
2019-05-13T01:18:34.032Z,99.90
2019-05-13T01:21:04.431Z,99.90
2019-05-13T01:23:34.348Z,99.90
2019-05-13T01:26:04.154Z,99.90
2019-05-13T01:28:34.474Z,99.90
2019-05-13T01:31:04.283Z,99.90
2019-05-13T01:33:35.090Z,99.90
2019-05-13T01:36:05.467Z,99.90
2019-05-13T01:38:34.945Z,99.90
2019-05-13T01:41:04.576Z,99.90
2019-05-13T01:43:33.957Z,99.90
2019-05-13T01:46:04.486Z,99.90
2019-05-13T01:48:35.093Z,99.90
2019-05-13T01:51:04.493Z,99.90
2019-05-13T01:53:33.855Z,99.90
2019-05-13T01:56:03.826Z,99.90
2019-05-13T01:58:34.074Z,99.90
2019-05-13T02:01:05.004Z,99.90
2019-05-13T02:03:34.754Z,99.90
2019-05-13T02:06:05.099Z,99.90
2019-05-13T02:08:34.405Z,99.90
2019-05-13T02:11:04.436Z,99.90
2019-05-13T02:13:34.572Z,99.90
2019-05-13T02:16:05.067Z,99.90
2019-05-13T02:18:34.472Z,99.90
2019-05-13T02:21:05.355Z,99.90
2019-05-13T02:23:34.782Z,99.90
2019-05-13T02:26:04.543Z,99.90
2019-05-13T02:28:33.992Z,99.90
2019-05-13T02:31:03.335Z,99.90
2019-05-13T02:33:33.806Z,99.90
2019-05-13T02:36:03.656Z,99.90
2019-05-13T02:38:53.181Z,99.90
2019-05-13T02:41:23.690Z,99.90
2019-05-13T02:43:53.014Z,99.90
2019-05-13T02:46:22.760Z,99.90
2019-05-13T02:48:52.934Z,99.90
2019-05-13T02:51:23.192Z,99.90
2019-05-13T02:53:52.687Z,99.90
2019-05-13T02:56:22.698Z,99.90
2019-05-13T02:58:52.686Z,99.90
2019-05-13T03:01:22.462Z,99.90
2019-05-13T03:03:52.809Z,99.90
2019-05-13T03:06:22.516Z,99.90
2019-05-13T03:08:54.452Z,99.90
2019-05-13T03:11:22.994Z,99.90
2019-05-13T03:13:53.166Z,99.90
2019-05-13T03:16:24.324Z,99.90
2019-05-13T03:18:53.634Z,99.90
2019-05-13T03:21:23.468Z,99.90
2019-05-13T03:23:52.950Z,99.90
2019-05-13T03:26:23.434Z,99.90
2019-05-13T03:28:53.141Z,99.90
2019-05-13T03:31:26.152Z,99.90
2019-05-13T03:33:55.613Z,99.90
2019-05-13T03:36:26.280Z,99.90
2019-05-13T03:39:05.614Z,99.90
2019-05-13T03:41:29.208Z,99.90
2019-05-13T03:44:02.543Z,99.90
2019-05-13T03:46:34.774Z,99.90
2019-05-13T03:49:04.725Z,99.90
2019-05-13T03:51:34.102Z,99.90
2019-05-13T03:54:03.459Z,99.90
2019-05-13T03:56:33.308Z,99.90
2019-05-13T03:59:02.927Z,99.90
2019-05-13T04:01:33.705Z,99.90
2019-05-13T04:04:03.448Z,99.90
2019-05-13T04:06:33.865Z,99.90
2019-05-13T04:09:20.548Z,99.90
2019-05-13T04:11:36.577Z,99.90
2019-05-13T04:14:05.881Z,99.90
2019-05-13T04:16:35.425Z,99.90
2019-05-13T04:19:04.733Z,99.90
2019-05-13T04:21:34.090Z,99.90
2019-05-13T04:24:04.195Z,99.90
2019-05-13T04:26:33.826Z,99.90
2019-05-13T04:29:03.400Z,99.90
2019-05-13T04:31:33.471Z,99.90
2019-05-13T04:34:03.840Z,99.90
2019-05-13T04:36:33.645Z,99.90
2019-05-13T04:39:04.420Z,99.90
2019-05-13T04:41:33.802Z,99.90
2019-05-13T04:44:03.168Z,99.90
2019-05-13T04:46:32.962Z,99.90
2019-05-13T04:49:02.523Z,99.90
2019-05-13T04:51:33.067Z,99.90
2019-05-13T04:54:08.238Z,99.90
2019-05-13T04:56:37.899Z,99.90
2019-05-13T04:59:07.197Z,99.90
2019-05-13T05:01:52.203Z,99.90
2019-05-13T05:04:30.453Z,99.90
2019-05-13T05:07:23.447Z,99.90
2019-05-13T05:10:22.218Z,99.90
2019-05-13T05:12:56.445Z,99.90
2019-05-13T05:16:02.842Z,99.90
2019-05-13T05:18:38.067Z,99.90
2019-05-13T05:21:13.306Z,99.90
2019-05-13T05:24:08.152Z,99.90
2019-05-13T05:27:09.216Z,99.90
2019-05-13T05:29:53.734Z,99.90
2019-05-13T05:32:32.293Z,99.90
2019-05-13T05:35:24.774Z,99.90
2019-05-13T05:38:13.716Z,99.90
2019-05-13T05:40:46.347Z,99.90
2019-05-13T05:43:17.112Z,99.90
2019-05-13T05:45:46.420Z,99.90
2019-05-13T05:48:17.550Z,99.90
2019-05-13T05:50:47.996Z,99.90
2019-05-13T05:53:21.836Z,99.90
2019-05-13T05:55:52.215Z,99.90
2019-05-13T05:58:31.381Z,99.90
2019-05-13T06:01:02.601Z,99.90
2019-05-13T06:03:35.683Z,99.90
2019-05-13T06:06:05.108Z,99.90
2019-05-13T06:08:34.432Z,99.90
2019-05-13T06:11:13.826Z,99.90
2019-05-13T06:13:43.209Z,99.90
2019-05-13T06:16:12.668Z,99.90
2019-05-13T06:18:42.007Z,99.90
2019-05-13T06:21:12.249Z,99.90
2019-05-13T06:23:42.699Z,99.60
2019-05-13T06:26:12.678Z,99.30
2019-05-13T06:28:42.099Z,99.90
2019-05-13T06:31:12.359Z,99.90
2019-05-13T06:33:42.277Z,99.30
2019-05-13T06:36:21.954Z,97.30
2019-05-13T06:38:51.314Z,97.40
2019-05-13T06:41:21.973Z,96.90
2019-05-13T06:43:52.382Z,96.20
2019-05-13T06:46:22.014Z,94.90
2019-05-13T06:48:52.304Z,95.50
2019-05-13T06:51:22.201Z,95.50
2019-05-13T06:53:51.895Z,96.00
2019-05-13T06:56:21.913Z,97.50
2019-05-13T06:58:52.440Z,97.20
2019-05-13T07:01:21.886Z,97.00
2019-05-13T07:03:51.901Z,98.00
2019-05-13T07:06:21.831Z,98.00
2019-05-13T07:08:52.110Z,98.00
2019-05-13T07:11:24.738Z,98.50
2019-05-13T07:13:52.581Z,99.90
2019-05-13T07:16:22.436Z,99.90
2019-05-13T07:18:52.420Z,99.90
2019-05-13T07:21:28.031Z,99.90
2019-05-13T07:23:57.369Z,99.90
2019-05-13T07:26:26.680Z,99.90
2019-05-13T07:28:56.222Z,98.60
2019-05-13T07:31:25.657Z,98.20
2019-05-13T07:33:54.967Z,96.80
2019-05-13T07:36:24.434Z,97.80
2019-05-13T07:38:55.090Z,96.70
2019-05-13T07:41:35.199Z,96.80
2019-05-13T07:43:55.426Z,97.30
2019-05-13T07:46:24.746Z,96.60
2019-05-13T07:48:55.018Z,98.10
2019-05-13T07:51:24.333Z,98.30
2019-05-13T07:53:53.644Z,98.80
2019-05-13T07:56:32.221Z,97.90
2019-05-13T07:59:01.821Z,97.40
2019-05-13T08:01:32.706Z,97.10
2019-05-13T08:04:02.419Z,97.00
2019-05-13T08:06:32.715Z,96.30
2019-05-13T08:09:02.068Z,96.00
2019-05-13T08:11:45.085Z,95.00
2019-05-13T08:14:06.109Z,94.00
2019-05-13T08:16:37.379Z,96.30
2019-05-13T08:19:06.693Z,94.70
2019-05-13T08:21:36.180Z,92.10
2019-05-13T08:24:05.477Z,92.20
2019-05-13T08:26:38.014Z,92.10
2019-05-13T08:29:11.316Z,91.30
2019-05-13T08:31:41.223Z,91.60
2019-05-13T08:34:11.762Z,87.30
2019-05-13T08:36:42.723Z,88.60
2019-05-13T08:39:12.782Z,81.80
2019-05-13T08:41:42.490Z,82.50
2019-05-13T08:44:12.515Z,88.30
2019-05-13T08:46:41.992Z,90.00
2019-05-13T08:49:12.021Z,81.10
2019-05-13T08:51:42.387Z,81.60
2019-05-13T08:54:12.757Z,79.90
2019-05-13T08:56:42.088Z,80.50
2019-05-13T08:59:11.874Z,78.50
2019-05-13T09:01:42.783Z,73.30
2019-05-13T09:04:12.323Z,72.00
2019-05-13T09:06:42.174Z,73.60
2019-05-13T09:09:11.740Z,71.30
2019-05-13T09:11:42.230Z,67.00
2019-05-13T09:14:11.728Z,61.70
2019-05-13T09:16:42.859Z,68.90
2019-05-13T09:19:15.859Z,63.00
2019-05-13T09:21:44.780Z,66.00
2019-05-13T09:24:25.387Z,67.90
2019-05-13T09:26:45.223Z,61.30
2019-05-13T09:29:14.676Z,60.90
2019-05-13T09:31:44.013Z,60.80
2019-05-13T09:34:13.358Z,71.80
2019-05-13T09:36:42.686Z,67.40
2019-05-13T09:39:12.805Z,61.70
2019-05-13T09:41:44.564Z,62.90
2019-05-13T09:44:14.147Z,64.20
2019-05-13T09:46:44.446Z,59.20
2019-05-13T09:49:19.857Z,61.10
2019-05-13T09:51:45.626Z,60.40
2019-05-13T09:54:14.951Z,55.10
2019-05-13T09:56:44.278Z,52.20
2019-05-13T09:59:13.656Z,58.90
2019-05-13T10:01:44.066Z,56.60
2019-05-13T10:04:13.433Z,51.40
2019-05-13T10:06:42.745Z,53.70
2019-05-13T10:09:12.669Z,52.20
2019-05-13T10:11:42.069Z,53.20
2019-05-13T10:14:11.803Z,49.50
2019-05-13T10:16:42.584Z,52.50
2019-05-13T10:19:12.788Z,52.30
2019-05-13T10:21:42.416Z,54.70
2019-05-13T10:24:12.720Z,51.80
2019-05-13T10:26:43.651Z,48.50
2019-05-13T10:29:13.508Z,47.80
2019-05-13T10:31:43.157Z,49.20
2019-05-13T10:34:14.043Z,48.70
2019-05-13T10:36:43.764Z,48.10
2019-05-13T10:39:13.255Z,43.70
2019-05-13T10:41:42.741Z,46.20
2019-05-13T10:44:12.367Z,45.00
2019-05-13T10:46:42.541Z,46.00
2019-05-13T10:49:12.427Z,47.00
2019-05-13T10:51:42.093Z,45.50
2019-05-13T10:54:11.559Z,45.50
2019-05-13T10:56:43.036Z,45.60
2019-05-13T10:59:12.595Z,45.50
2019-05-13T11:01:42.790Z,43.30
2019-05-13T11:04:13.444Z,43.10
2019-05-13T11:06:43.114Z,46.70
2019-05-13T11:09:13.227Z,44.60
2019-05-13T11:11:42.659Z,41.00
2019-05-13T11:14:15.453Z,44.60
2019-05-13T11:16:43.956Z,44.50
2019-05-13T11:19:13.280Z,42.90
2019-05-13T11:21:44.259Z,44.30
2019-05-13T11:24:13.683Z,44.10
2019-05-13T11:26:43.080Z,40.60
2019-05-13T11:29:12.439Z,41.50
2019-05-13T11:31:42.759Z,40.50
2019-05-13T11:34:12.467Z,38.80
2019-05-13T11:36:43.424Z,39.40
2019-05-13T11:39:13.180Z,39.50
2019-05-13T11:41:42.940Z,37.60
2019-05-13T11:44:16.449Z,39.50
2019-05-13T11:46:43.421Z,41.70
2019-05-13T11:49:12.782Z,38.90
2019-05-13T11:51:43.150Z,37.40
2019-05-13T11:54:13.837Z,37.90
2019-05-13T11:56:49.236Z,39.00
2019-05-13T11:59:14.707Z,39.90
2019-05-13T12:01:44.013Z,40.40
2019-05-13T12:04:13.344Z,38.60
2019-05-13T12:06:48.040Z,38.80
2019-05-13T12:09:13.964Z,37.10
2019-05-13T12:11:43.278Z,35.70
2019-05-13T12:14:37.019Z,37.20
2019-05-13T12:16:43.625Z,39.40
2019-05-13T12:19:12.954Z,36.90
2019-05-13T12:21:46.438Z,38.90
2019-05-13T12:24:13.292Z,35.70
2019-05-13T12:26:43.643Z,37.00
2019-05-13T12:29:18.544Z,37.10
2019-05-13T12:31:44.212Z,37.20
2019-05-13T12:34:13.928Z,36.80
2019-05-13T12:36:43.560Z,38.00
2019-05-13T12:39:14.256Z,35.80
2019-05-13T12:41:44.036Z,39.30
2019-05-13T12:44:13.350Z,38.60
2019-05-13T12:46:49.399Z,36.60
2019-05-13T12:49:14.528Z,37.50
2019-05-13T12:51:44.217Z,36.80
2019-05-13T12:54:14.308Z,36.60
2019-05-13T12:56:43.853Z,36.00
2019-05-13T12:59:13.621Z,37.00
2019-05-13T13:01:43.054Z,34.80
2019-05-13T13:04:12.692Z,34.70
2019-05-13T13:06:45.472Z,33.00
2019-05-13T13:09:13.175Z,34.50
2019-05-13T13:11:43.667Z,32.50
2019-05-13T13:14:15.618Z,31.30
2019-05-13T13:16:44.396Z,34.20
2019-05-13T13:19:15.072Z,33.70
2019-05-13T13:21:44.523Z,32.60
2019-05-13T13:24:13.849Z,32.40
2019-05-13T13:26:44.124Z,32.70
2019-05-13T13:29:13.440Z,32.80
2019-05-13T13:31:43.625Z,34.60
2019-05-13T13:34:18.031Z,35.50
2019-05-13T13:36:46.096Z,34.60
2019-05-13T13:39:15.390Z,35.00
2019-05-13T13:41:44.846Z,36.30
2019-05-13T13:44:14.167Z,34.60
2019-05-13T13:46:49.237Z,32.90
2019-05-13T13:49:14.513Z,33.90
2019-05-13T13:51:44.794Z,36.30
2019-05-13T13:54:14.839Z,35.70
2019-05-13T13:56:44.821Z,35.10
2019-05-13T13:59:14.497Z,34.90
2019-05-13T14:01:44.887Z,35.20
2019-05-13T14:04:16.354Z,35.40
2019-05-13T14:09:16.217Z,32.30
2019-05-13T14:11:45.544Z,33.10
2019-05-13T14:14:14.856Z,32.30
2019-05-13T14:16:46.635Z,31.70
2019-05-13T14:19:15.203Z,33.90
2019-05-13T14:21:44.528Z,33.10
2019-05-13T14:24:13.842Z,34.20
2019-05-13T14:26:43.631Z,35.60
2019-05-13T14:29:13.110Z,35.10
2019-05-13T14:31:42.766Z,35.50
2019-05-13T14:34:12.096Z,34.80
2019-05-13T14:36:41.421Z,35.70
2019-05-13T14:39:12.073Z,37.90
2019-05-13T14:41:42.530Z,37.20
2019-05-13T14:44:12.589Z,38.50
2019-05-13T14:46:47.564Z,38.70
2019-05-13T14:49:14.206Z,40.20
2019-05-13T14:51:43.526Z,40.60
2019-05-13T14:54:12.832Z,39.20
2019-05-13T14:56:42.162Z,38.90
2019-05-13T14:59:12.001Z,38.70
2019-05-13T15:01:41.547Z,38.20
2019-05-13T15:04:12.303Z,39.40
2019-05-13T15:06:41.882Z,39.40
2019-05-13T15:09:12.552Z,37.30
2019-05-13T15:11:43.230Z,36.20
2019-05-13T15:14:12.559Z,37.10
2019-05-13T15:16:42.605Z,36.30
2019-05-13T15:19:31.792Z,35.90
2019-05-13T15:22:01.264Z,35.10
2019-05-13T15:24:32.322Z,33.70
2019-05-13T15:27:06.291Z,33.20
2019-05-13T15:29:35.617Z,34.70
2019-05-13T15:32:04.954Z,34.90
2019-05-13T15:34:34.269Z,34.40
2019-05-13T15:37:03.866Z,35.40
2019-05-13T15:39:42.595Z,34.80
2019-05-13T15:42:11.997Z,34.30
2019-05-13T15:44:41.429Z,32.60
2019-05-13T15:47:22.880Z,33.30
2019-05-13T15:49:41.750Z,33.30
2019-05-13T15:52:12.072Z,33.10
2019-05-13T15:54:42.418Z,33.60
2019-05-13T15:57:12.090Z,33.60
2019-05-13T15:59:41.642Z,33.50
2019-05-13T16:02:15.473Z,32.30
2019-05-13T16:04:53.024Z,32.60
2019-05-13T16:07:16.852Z,34.00
2019-05-13T16:09:46.180Z,35.30
2019-05-13T16:12:15.493Z,35.00
2019-05-13T16:14:44.944Z,34.60
2019-05-13T16:17:14.358Z,35.00
2019-05-13T16:19:43.658Z,35.30
2019-05-13T16:22:12.978Z,35.50
2019-05-13T16:24:42.292Z,34.20
2019-05-13T16:27:12.000Z,33.80
2019-05-13T16:29:42.223Z,35.10
2019-05-13T16:32:12.686Z,33.90
2019-05-13T16:34:42.467Z,34.10
2019-05-13T16:37:11.960Z,33.70
2019-05-13T16:39:41.619Z,32.50
2019-05-13T16:42:12.135Z,33.70
2019-05-13T16:44:42.956Z,35.50
2019-05-13T16:47:12.520Z,36.60
2019-05-13T16:49:41.833Z,37.40
2019-05-13T16:52:13.085Z,37.80
2019-05-13T16:54:45.335Z,37.30
2019-05-13T16:57:14.661Z,38.50
2019-05-13T16:59:43.957Z,41.50
2019-05-13T17:02:13.323Z,40.50
2019-05-13T17:04:42.626Z,40.30
2019-05-13T17:07:11.966Z,40.40
2019-05-13T17:09:41.661Z,38.80
2019-05-13T17:12:13.874Z,38.70
2019-05-13T17:14:42.222Z,38.40
2019-05-13T17:17:12.060Z,39.00
2019-05-13T17:19:42.215Z,39.30
2019-05-13T17:22:11.783Z,38.90
2019-05-13T17:24:42.647Z,38.80
2019-05-13T17:27:12.340Z,39.90
2019-05-13T17:29:41.727Z,40.80
2019-05-13T17:32:11.579Z,40.80
2019-05-13T17:34:43.640Z,39.60
2019-05-13T17:37:13.289Z,40.20
2019-05-13T17:39:42.613Z,40.60
2019-05-13T17:42:12.385Z,40.10
2019-05-13T17:44:46.360Z,40.60
2019-05-13T17:47:16.924Z,40.30
2019-05-13T17:49:46.237Z,41.60
2019-05-13T17:52:15.568Z,42.00
2019-05-13T17:54:44.879Z,42.00
2019-05-13T17:57:14.206Z,43.50
2019-05-13T17:59:43.520Z,43.90
2019-05-13T18:02:12.864Z,45.80
2019-05-13T18:04:42.232Z,48.10
2019-05-13T18:07:12.257Z,50.10
2019-05-13T18:09:42.323Z,51.90
2019-05-13T18:12:11.843Z,52.40
2019-05-13T18:14:41.377Z,53.70
2019-05-13T18:17:12.556Z,55.40
2019-05-13T18:19:42.220Z,57.00
2019-05-13T18:22:11.650Z,58.80
2019-05-13T18:24:41.053Z,60.20
2019-05-13T18:27:12.283Z,60.80
2019-05-13T18:29:41.947Z,62.50
2019-05-13T18:32:12.356Z,65.00
2019-05-13T18:34:41.842Z,66.60
2019-05-13T18:37:11.838Z,69.60
2019-05-13T18:39:41.764Z,71.40
2019-05-13T18:42:11.643Z,74.70
2019-05-13T18:44:42.292Z,77.50
2019-05-13T18:47:12.229Z,80.70
2019-05-13T18:49:42.333Z,84.70
2019-05-13T18:52:11.923Z,88.00
2019-05-13T18:54:42.161Z,90.40
2019-05-13T18:57:12.296Z,91.80
2019-05-13T18:59:41.826Z,92.20
2019-05-13T19:02:12.246Z,93.30
2019-05-13T19:04:42.810Z,93.40
2019-05-13T19:07:12.107Z,93.40
2019-05-13T19:09:41.855Z,94.20
2019-05-13T19:12:11.730Z,94.60
2019-05-13T19:14:41.338Z,94.50
2019-05-13T19:17:12.424Z,94.60
2019-05-13T19:19:42.175Z,95.10
2019-05-13T19:22:12.235Z,95.40
2019-05-13T19:24:42.790Z,95.60
2019-05-13T19:27:12.244Z,95.90
2019-05-13T19:29:42.580Z,95.70
2019-05-13T19:32:12.524Z,96.00
2019-05-13T19:34:42.497Z,95.90
2019-05-13T19:37:12.098Z,96.20
2019-05-13T19:39:41.484Z,96.30
2019-05-13T19:42:11.593Z,96.60
2019-05-13T19:44:42.038Z,96.70
2019-05-13T19:47:12.397Z,96.70
2019-05-13T19:49:46.112Z,96.90
2019-05-13T19:52:12.977Z,96.90
2019-05-13T19:54:42.294Z,97.10
2019-05-13T19:57:12.089Z,96.90
2019-05-13T19:59:42.695Z,97.60
2019-05-13T20:02:12.443Z,97.50
2019-05-13T20:04:41.904Z,97.80
2019-05-13T20:07:12.196Z,97.90
2019-05-13T20:09:42.560Z,98.20
2019-05-13T20:12:12.129Z,98.50
2019-05-13T20:14:41.436Z,98.70
2019-05-13T20:17:12.273Z,98.80
2019-05-13T20:19:50.091Z,99.00
2019-05-13T20:22:13.851Z,99.40
2019-05-13T20:24:43.331Z,99.30
2019-05-13T20:27:13.604Z,99.50
2019-05-13T20:29:42.929Z,99.80
2019-05-13T20:32:12.232Z,99.90
2019-05-13T20:34:41.544Z,99.90
2019-05-13T20:37:12.418Z,99.90
2019-05-13T20:39:42.581Z,99.90
2019-05-13T20:42:12.434Z,99.90
2019-05-13T20:44:42.138Z,99.90
2019-05-13T20:47:11.502Z,99.90
2019-05-13T20:49:41.737Z,99.90
2019-05-13T20:52:15.205Z,99.90
2019-05-13T20:54:43.326Z,99.90
2019-05-13T20:57:12.634Z,99.90
2019-05-13T20:59:41.965Z,99.90
2019-05-13T21:02:12.435Z,99.90
2019-05-13T21:04:42.085Z,99.90
2019-05-13T21:07:12.542Z,99.90
2019-05-13T21:09:42.931Z,99.90
2019-05-13T21:12:12.290Z,99.90
2019-05-13T21:14:41.766Z,99.90
2019-05-13T21:17:12.375Z,99.90
2019-05-13T21:19:42.859Z,99.90
2019-05-13T21:22:12.446Z,99.90
2019-05-13T21:24:51.516Z,99.90
2019-05-13T21:27:21.016Z,99.90
2019-05-13T21:29:51.936Z,99.90
2019-05-13T21:32:21.517Z,99.90
2019-05-13T21:34:51.596Z,99.90
2019-05-13T21:37:22.273Z,99.90
2019-05-13T21:39:51.781Z,99.90
2019-05-13T21:42:21.613Z,99.90
2019-05-13T21:44:51.417Z,99.90
2019-05-13T21:47:22.006Z,99.90
2019-05-13T21:49:51.728Z,99.90
2019-05-13T21:52:23.590Z,99.90
2019-05-13T21:54:52.145Z,99.90
2019-05-13T21:57:21.444Z,99.90
2019-05-13T21:59:51.594Z,99.90
2019-05-13T22:02:23.239Z,99.90
2019-05-13T22:04:52.310Z,99.90
2019-05-13T22:07:22.274Z,99.90
2019-05-13T22:09:51.694Z,99.90
2019-05-13T22:12:21.718Z,99.90
2019-05-13T22:14:51.731Z,99.90
2019-05-13T22:17:21.312Z,99.90
2019-05-13T22:19:51.295Z,99.90
2019-05-13T22:22:22.090Z,99.90
2019-05-13T22:24:51.503Z,99.90
2019-05-13T22:27:21.910Z,99.90
2019-05-13T22:29:51.744Z,99.90
2019-05-13T22:32:22.199Z,99.90
2019-05-13T22:34:51.548Z,99.90
2019-05-13T22:37:23.032Z,99.90
2019-05-13T22:39:51.873Z,99.90
2019-05-13T22:42:21.583Z,99.90
2019-05-13T22:44:52.229Z,99.90
2019-05-13T22:47:22.082Z,99.90
2019-05-13T22:49:51.445Z,99.90
2019-05-13T22:52:21.800Z,99.90
2019-05-13T22:54:51.838Z,99.90
2019-05-13T22:57:21.922Z,99.90
2019-05-13T22:59:51.989Z,99.90
2019-05-13T23:02:22.598Z,99.90
2019-05-13T23:04:51.925Z,99.90
2019-05-13T23:07:22.317Z,99.90
2019-05-13T23:09:51.999Z,99.90
2019-05-13T23:12:21.411Z,99.90
2019-05-13T23:14:52.007Z,99.90
2019-05-13T23:17:21.685Z,99.90
2019-05-13T23:19:52.257Z,99.90
2019-05-13T23:22:21.900Z,99.90
2019-05-13T23:24:51.271Z,99.90
2019-05-13T23:27:22.039Z,99.90
2019-05-13T23:29:51.767Z,99.90
2019-05-13T23:32:21.358Z,99.90
2019-05-13T23:34:51.273Z,99.90
2019-05-13T23:37:21.843Z,99.90
2019-05-13T23:39:51.980Z,99.90
2019-05-13T23:42:21.609Z,99.90
2019-05-13T23:44:51.768Z,99.90
2019-05-13T23:47:21.844Z,99.90
2019-05-13T23:49:51.434Z,99.90
2019-05-13T23:52:21.947Z,99.90
2019-05-13T23:54:51.783Z,99.90
2019-05-13T23:57:22.222Z,99.90
2019-05-13T23:59:51.679Z,99.90
